createdAt,value
2023-03-24T00:00:02.117Z,133.01
2023-03-24T00:01:02.144Z,132.59
2023-03-24T00:02:02.038Z,129.43
2023-03-24T00:03:02.397Z,127.75
2023-03-24T00:04:02.028Z,126.31
2023-03-24T00:05:01.858Z,125.09
2023-03-24T00:06:01.840Z,121.74
2023-03-24T00:07:01.840Z,120.18
2023-03-24T00:08:02.454Z,117.98
2023-03-24T00:09:01.872Z,115.71
2023-03-24T00:10:01.888Z,114.21
2023-03-24T00:11:01.775Z,113.75
2023-03-24T00:12:01.754Z,113.75
2023-03-24T00:13:01.762Z,112.91
2023-03-24T00:14:01.724Z,110.97
2023-03-24T00:15:01.739Z,109.24
2023-03-24T00:16:01.777Z,102.58
2023-03-24T00:17:01.701Z,91.15
2023-03-24T00:18:01.767Z,80.89
2023-03-24T00:19:01.676Z,76.20
2023-03-24T00:20:01.649Z,75.11
2023-03-24T00:21:01.674Z,72.64
2023-03-24T00:22:01.637Z,71.35
2023-03-24T00:23:01.738Z,73.46
2023-03-24T00:24:01.612Z,74.84
2023-03-24T00:25:01.626Z,76.82
2023-03-24T00:26:01.579Z,78.91
2023-03-24T00:27:01.608Z,79.51
2023-03-24T00:28:01.573Z,81.12
2023-03-24T00:29:01.741Z,82.56
2023-03-24T00:30:01.749Z,83.54
2023-03-24T00:31:01.769Z,84.46
2023-03-24T00:32:01.741Z,84.81
2023-03-24T00:33:01.847Z,84.72
2023-03-24T00:34:01.757Z,83.96
2023-03-24T00:35:01.502Z,84.38
2023-03-24T00:36:01.569Z,84.04
2023-03-24T00:37:01.687Z,84.63
2023-03-24T00:38:01.746Z,83.62
2023-03-24T00:39:01.476Z,83.46
2023-03-24T00:40:01.437Z,82.96
2023-03-24T00:41:01.474Z,82.07
2023-03-24T00:42:01.506Z,81.20
2023-03-24T00:43:01.540Z,81.04
2023-03-24T00:44:01.379Z,80.89
2023-03-24T00:45:01.631Z,79.81
2023-03-24T00:46:01.367Z,78.40
2023-03-24T00:47:01.719Z,76.89
2023-03-24T00:48:01.741Z,77.10
2023-03-24T00:49:01.743Z,76.54
2023-03-24T00:50:01.756Z,76.75
2023-03-24T00:51:01.611Z,76.61
2023-03-24T00:52:01.755Z,76.06
2023-03-24T00:53:01.299Z,75.31
2023-03-24T00:54:01.542Z,74.90
2023-03-24T00:55:01.764Z,74.38
2023-03-24T00:56:01.261Z,74.24
2023-03-24T00:57:01.800Z,73.46
2023-03-24T00:58:01.763Z,73.40
2023-03-24T00:59:01.229Z,73.59
2023-03-24T01:00:01.761Z,73.08
2023-03-24T01:01:01.834Z,73.46
2023-03-24T01:02:01.192Z,72.58
2023-03-24T01:03:01.339Z,72.26
2023-03-24T01:04:01.768Z,71.71
2023-03-24T01:05:01.772Z,71.29
2023-03-24T01:06:02.388Z,70.45
2023-03-24T01:07:01.780Z,70.21
2023-03-24T01:08:01.770Z,69.52
2023-03-24T01:09:01.102Z,68.78
2023-03-24T01:10:01.759Z,68.50
2023-03-24T01:11:01.562Z,67.78
2023-03-24T01:12:01.560Z,67.56
2023-03-24T01:13:01.802Z,67.13
2023-03-24T01:14:01.033Z,66.28
2023-03-24T01:15:01.038Z,65.82
2023-03-24T01:16:01.807Z,65.51
2023-03-24T01:17:01.051Z,64.85
2023-03-24T01:18:01.195Z,63.87
2023-03-24T01:19:01.060Z,62.91
2023-03-24T01:20:01.780Z,62.96
2023-03-24T01:21:01.066Z,63.34
2023-03-24T01:22:01.783Z,63.19
2023-03-24T01:23:01.070Z,63.24
2023-03-24T01:24:00.922Z,63.19
2023-03-24T01:25:01.012Z,62.81
2023-03-24T01:26:00.916Z,62.58
2023-03-24T01:27:00.930Z,62.67
2023-03-24T01:28:00.951Z,62.30
2023-03-24T01:29:00.969Z,62.17
2023-03-24T01:30:00.970Z,62.07
2023-03-24T01:31:00.872Z,61.62
2023-03-24T01:32:00.978Z,61.35
2023-03-24T01:33:00.874Z,60.95
2023-03-24T01:34:00.812Z,60.42
2023-03-24T01:35:00.849Z,59.91
2023-03-24T01:36:00.825Z,59.57
2023-03-24T01:37:00.804Z,59.36
2023-03-24T01:38:00.785Z,59.06
2023-03-24T01:39:00.771Z,58.61
2023-03-24T01:40:00.787Z,58.73
2023-03-24T01:41:00.756Z,58.61
2023-03-24T01:42:00.801Z,58.53
2023-03-24T01:43:00.866Z,58.78
2023-03-24T01:44:00.680Z,59.15
2023-03-24T01:45:00.682Z,59.44
2023-03-24T01:46:00.745Z,59.27
2023-03-24T01:47:00.679Z,60.08
2023-03-24T01:48:00.657Z,60.64
2023-03-24T01:49:00.808Z,61.17
2023-03-24T01:50:00.784Z,61.94
2023-03-24T01:51:00.793Z,62.53
2023-03-24T01:52:00.803Z,63.48
2023-03-24T01:53:00.825Z,64.11
2023-03-24T01:54:00.562Z,65.10
2023-03-24T01:55:00.734Z,65.71
2023-03-24T01:56:00.801Z,66.65
2023-03-24T01:57:00.582Z,68.00
2023-03-24T01:58:00.799Z,68.95
2023-03-24T01:59:00.813Z,69.63
2023-03-24T02:00:00.490Z,70.68
2023-03-24T02:01:01.110Z,71.59
2023-03-24T02:02:00.793Z,72.45
2023-03-24T02:03:00.521Z,72.89
2023-03-24T02:04:00.492Z,73.85
2023-03-24T02:05:00.443Z,74.71
2023-03-24T02:06:00.808Z,75.17
2023-03-24T02:07:00.427Z,76.13
2023-03-24T02:08:00.813Z,76.47
2023-03-24T02:09:00.419Z,77.46
2023-03-24T02:10:00.406Z,76.75
2023-03-24T02:11:00.444Z,76.89
2023-03-24T02:12:00.479Z,76.68
2023-03-24T02:13:00.371Z,76.40
2023-03-24T02:14:00.539Z,76.89
2023-03-24T02:15:00.586Z,76.82
2023-03-24T02:16:00.645Z,77.53
2023-03-24T02:17:00.649Z,76.26
2023-03-24T02:18:00.351Z,75.38
2023-03-24T02:19:00.292Z,74.90
2023-03-24T02:20:00.682Z,74.57
2023-03-24T02:21:00.271Z,74.64
2023-03-24T02:22:00.467Z,74.51
2023-03-24T02:23:00.286Z,73.85
2023-03-24T02:24:00.226Z,73.46
2023-03-24T02:25:00.297Z,72.83
2023-03-24T02:26:00.931Z,71.83
2023-03-24T02:27:00.208Z,70.80
2023-03-24T02:28:00.832Z,69.57
2023-03-24T02:29:00.305Z,68.11
2023-03-24T02:30:01.067Z,65.71
2023-03-24T02:31:00.190Z,63.91
2023-03-24T02:32:00.646Z,60.64
2023-03-24T02:33:00.228Z,56.71
2023-03-24T02:34:00.186Z,52.66
2023-03-24T02:35:00.340Z,50.82
2023-03-24T02:36:00.218Z,50.03
2023-03-24T02:37:00.348Z,47.59
2023-03-24T02:38:00.848Z,45.58
2023-03-24T02:39:00.141Z,44.24
2023-03-24T02:40:00.819Z,42.97
2023-03-24T02:41:00.370Z,41.29
2023-03-24T02:42:00.011Z,39.21
2023-03-24T02:43:00.001Z,37.30
2023-03-24T02:44:00.001Z,35.84
2023-03-24T02:44:59.994Z,34.51
2023-03-24T02:46:00.107Z,33.69
2023-03-24T02:47:00.050Z,33.63
2023-03-24T02:47:59.976Z,33.44
2023-03-24T02:48:59.951Z,32.97
2023-03-24T02:50:00.158Z,32.79
2023-03-24T02:50:59.924Z,32.61
2023-03-24T02:52:00.123Z,32.17
2023-03-24T02:52:59.883Z,31.83
2023-03-24T02:53:59.877Z,31.59
2023-03-24T02:54:59.876Z,31.97
2023-03-24T02:55:59.864Z,32.61
2023-03-24T02:56:59.906Z,32.41
2023-03-24T02:57:59.813Z,32.22
2023-03-24T02:59:00.044Z,31.47
2023-03-24T02:59:59.794Z,31.12
2023-03-24T03:00:59.903Z,31.49
2023-03-24T03:02:00.119Z,32.34
2023-03-24T03:02:59.891Z,33.21
2023-03-24T03:03:59.785Z,33.37
2023-03-24T03:04:59.861Z,33.47
2023-03-24T03:05:59.719Z,33.42
2023-03-24T03:06:59.738Z,33.37
2023-03-24T03:07:59.872Z,33.82
2023-03-24T03:08:59.698Z,33.71
2023-03-24T03:09:59.858Z,33.63
2023-03-24T03:10:59.754Z,33.26
2023-03-24T03:11:59.677Z,33.74
2023-03-24T03:12:59.855Z,34.12
2023-03-24T03:13:59.862Z,35.24
2023-03-24T03:14:59.641Z,35.90
2023-03-24T03:15:59.896Z,36.74
2023-03-24T03:16:59.630Z,37.04
2023-03-24T03:17:59.725Z,37.27
2023-03-24T03:18:59.634Z,38.49
2023-03-24T03:19:59.571Z,39.54
2023-03-24T03:20:59.658Z,41.01
2023-03-24T03:21:59.542Z,41.78
2023-03-24T03:22:59.579Z,42.03
2023-03-24T03:23:59.873Z,42.50
2023-03-24T03:24:59.522Z,42.67
2023-03-24T03:25:59.834Z,43.28
2023-03-24T03:26:59.654Z,43.64
2023-03-24T03:27:59.517Z,44.47
2023-03-24T03:28:59.655Z,44.71
2023-03-24T03:29:59.481Z,45.19
2023-03-24T03:30:59.502Z,45.58
2023-03-24T03:31:59.513Z,45.88
2023-03-24T03:32:59.511Z,45.73
2023-03-24T03:33:59.883Z,46.34
2023-03-24T03:34:59.676Z,46.64
2023-03-24T03:36:00.437Z,47.35
2023-03-24T03:36:59.427Z,47.97
2023-03-24T03:37:59.440Z,45.78
2023-03-24T03:38:59.382Z,42.58
2023-03-24T03:39:59.378Z,42.03
2023-03-24T03:40:59.356Z,40.49
2023-03-24T03:42:00.820Z,40.46
2023-03-24T03:42:59.454Z,41.37
2023-03-24T03:43:59.361Z,42.58
2023-03-24T03:44:59.528Z,43.33
2023-03-24T03:45:59.328Z,44.38
2023-03-24T03:46:59.259Z,44.85
2023-03-24T03:47:59.672Z,46.59
2023-03-24T03:48:59.252Z,48.25
2023-03-24T03:49:59.425Z,48.70
2023-03-24T03:51:12.435Z,47.65
2023-03-24T03:52:00.208Z,46.80
2023-03-24T03:52:59.787Z,44.57
2023-03-24T03:53:59.224Z,42.63
2023-03-24T03:54:59.788Z,42.54
2023-03-24T03:55:59.781Z,44.33
2023-03-24T03:56:59.187Z,46.03
2023-03-24T03:57:59.976Z,47.33
2023-03-24T03:58:59.213Z,48.08
2023-03-24T03:59:59.521Z,48.92
2023-03-24T04:00:59.107Z,50.21
2023-03-24T04:01:59.162Z,50.94
2023-03-24T04:02:59.205Z,52.14
2023-03-24T04:03:59.159Z,53.30
2023-03-24T04:05:05.888Z,54.40
2023-03-24T04:06:00.176Z,55.74
2023-03-24T04:06:59.188Z,56.11
2023-03-24T04:07:59.033Z,54.26
2023-03-24T04:08:59.100Z,51.19
2023-03-24T04:09:59.021Z,49.30
2023-03-24T04:10:59.001Z,48.39
2023-03-24T04:11:59.259Z,48.42
2023-03-24T04:12:58.960Z,48.72
2023-03-24T04:13:59.273Z,49.27
2023-03-24T04:14:58.953Z,49.41
2023-03-24T04:15:58.983Z,49.12
2023-03-24T04:16:58.921Z,48.78
2023-03-24T04:17:58.959Z,48.08
2023-03-24T04:18:58.897Z,47.11
2023-03-24T04:19:58.893Z,45.73
2023-03-24T04:20:58.911Z,44.85
2023-03-24T04:21:58.927Z,44.19
2023-03-24T04:22:58.984Z,42.24
2023-03-24T04:23:58.851Z,41.82
2023-03-24T04:24:58.825Z,44.01
2023-03-24T04:25:58.851Z,46.70
2023-03-24T04:26:58.882Z,49.10
2023-03-24T04:27:58.912Z,50.60
2023-03-24T04:28:58.769Z,50.85
2023-03-24T04:29:58.928Z,51.25
2023-03-24T04:30:58.922Z,51.25
2023-03-24T04:31:58.746Z,51.06
2023-03-24T04:32:58.830Z,51.09
2023-03-24T04:33:58.723Z,51.28
2023-03-24T04:34:58.707Z,51.34
2023-03-24T04:35:58.780Z,51.12
2023-03-24T04:36:58.673Z,50.45
2023-03-24T04:37:58.932Z,49.10
2023-03-24T04:38:58.926Z,47.57
2023-03-24T04:39:58.849Z,45.19
2023-03-24T04:40:58.621Z,43.46
2023-03-24T04:41:58.647Z,40.61
2023-03-24T04:42:58.605Z,38.25
2023-03-24T04:43:58.608Z,36.27
2023-03-24T04:44:58.933Z,34.12
2023-03-24T04:45:58.966Z,32.41
2023-03-24T04:46:58.572Z,31.37
2023-03-24T04:47:58.629Z,30.12
2023-03-24T04:48:58.938Z,29.18
2023-03-24T04:49:58.533Z,28.49
2023-03-24T04:50:58.509Z,28.96
2023-03-24T04:51:58.527Z,29.50
2023-03-24T04:52:58.486Z,30.27
2023-03-24T04:53:58.949Z,30.27
2023-03-24T04:54:58.946Z,31.35
2023-03-24T04:55:58.480Z,32.69
2023-03-24T04:56:58.523Z,34.07
2023-03-24T04:57:58.446Z,34.77
2023-03-24T04:58:58.422Z,34.92
2023-03-24T04:59:58.433Z,34.54
2023-03-24T05:00:58.469Z,33.96
2023-03-24T05:01:58.958Z,32.77
2023-03-24T05:02:58.397Z,31.54
2023-03-24T05:03:58.389Z,30.31
2023-03-24T05:04:58.340Z,29.77
2023-03-24T05:05:58.366Z,29.12
2023-03-24T05:06:58.312Z,29.65
2023-03-24T05:07:58.325Z,30.89
2023-03-24T05:08:58.347Z,32.19
2023-03-24T05:09:58.321Z,33.02
2023-03-24T05:10:58.305Z,33.90
2023-03-24T05:11:59.789Z,34.71
2023-03-24T05:12:58.253Z,34.97
2023-03-24T05:13:58.249Z,34.97
2023-03-24T05:14:58.225Z,35.30
2023-03-24T05:15:58.272Z,35.38
2023-03-24T05:16:58.201Z,35.53
2023-03-24T05:17:58.597Z,35.99
2023-03-24T05:18:58.185Z,36.36
2023-03-24T05:19:58.241Z,37.17
2023-03-24T05:20:58.178Z,38.21
2023-03-24T05:21:58.160Z,39.47
2023-03-24T05:22:58.197Z,40.46
2023-03-24T05:23:58.206Z,41.78
2023-03-24T05:24:58.112Z,43.55
2023-03-24T05:25:58.242Z,45.63
2023-03-24T05:26:58.260Z,47.49
2023-03-24T05:27:58.266Z,49.18
2023-03-24T05:28:58.063Z,50.54
2023-03-24T05:29:58.079Z,51.69
2023-03-24T05:30:58.356Z,53.33
2023-03-24T05:31:58.323Z,54.15
2023-03-24T05:32:58.069Z,57.96
2023-03-24T05:33:58.352Z,62.12
2023-03-24T05:34:58.012Z,65.61
2023-03-24T05:35:58.025Z,66.28
2023-03-24T05:36:57.980Z,67.72
2023-03-24T05:37:57.974Z,68.95
2023-03-24T05:38:57.949Z,69.23
2023-03-24T05:39:57.976Z,70.57
2023-03-24T05:40:57.972Z,69.86
2023-03-24T05:41:57.996Z,68.00
2023-03-24T05:42:57.896Z,67.02
2023-03-24T05:43:57.979Z,67.08
2023-03-24T05:44:57.874Z,64.55
2023-03-24T05:45:57.907Z,61.04
2023-03-24T05:46:57.978Z,57.65
2023-03-24T05:47:58.054Z,55.62
2023-03-24T05:48:57.882Z,53.53
2023-03-24T05:49:57.996Z,52.76
2023-03-24T05:50:57.819Z,52.83
2023-03-24T05:51:57.823Z,52.93
2023-03-24T05:52:57.793Z,51.79
2023-03-24T05:53:57.782Z,49.70
2023-03-24T05:54:57.948Z,47.70
2023-03-24T05:55:57.756Z,46.80
2023-03-24T05:56:57.790Z,48.44
2023-03-24T05:58:00.285Z,50.85
2023-03-24T05:58:57.709Z,53.23
2023-03-24T05:59:58.000Z,55.29
2023-03-24T06:00:57.694Z,55.85
2023-03-24T06:01:57.699Z,55.85
2023-03-24T06:02:57.746Z,56.33
2023-03-24T06:03:57.695Z,55.22
2023-03-24T06:04:57.803Z,54.72
2023-03-24T06:05:57.993Z,54.72
2023-03-24T06:06:57.609Z,56.26
2023-03-24T06:07:57.638Z,56.07
2023-03-24T06:08:57.594Z,54.58
2023-03-24T06:09:57.594Z,52.83
2023-03-24T06:10:57.992Z,54.26
2023-03-24T06:11:57.569Z,55.22
2023-03-24T06:12:57.559Z,52.30
2023-03-24T06:13:58.016Z,48.64
2023-03-24T06:14:57.517Z,46.34
2023-03-24T06:15:57.555Z,44.29
2023-03-24T06:16:57.492Z,42.33
2023-03-24T06:17:57.552Z,40.57
2023-03-24T06:18:57.492Z,38.88
2023-03-24T06:19:57.487Z,37.23
2023-03-24T06:20:57.454Z,35.44
2023-03-24T06:21:58.013Z,34.21
2023-03-24T06:22:57.430Z,32.36
2023-03-24T06:23:58.015Z,30.44
2023-03-24T06:24:57.400Z,28.90
2023-03-24T06:25:57.414Z,27.75
2023-03-24T06:26:57.376Z,27.04
2023-03-24T06:27:57.394Z,26.20
2023-03-24T06:28:57.825Z,25.39
2023-03-24T06:29:58.028Z,25.06
2023-03-24T06:30:57.348Z,24.40
2023-03-24T06:31:57.349Z,23.74
2023-03-24T06:32:57.390Z,23.51
2023-03-24T06:33:57.334Z,24.08
2023-03-24T06:34:57.289Z,31.33
2023-03-24T06:35:57.318Z,39.36
2023-03-24T06:36:57.271Z,47.03
2023-03-24T06:37:57.583Z,54.79
2023-03-24T06:38:57.319Z,62.17
2023-03-24T06:39:57.253Z,68.44
2023-03-24T06:40:57.206Z,73.53
2023-03-24T06:41:57.220Z,78.18
2023-03-24T06:42:57.288Z,81.60
2023-03-24T06:43:57.205Z,84.13
2023-03-24T06:44:57.315Z,86.73
2023-03-24T06:45:57.331Z,87.72
2023-03-24T06:46:57.346Z,88.28
2023-03-24T06:47:57.450Z,87.27
2023-03-24T06:48:57.142Z,83.62
2023-03-24T06:49:57.122Z,80.65
2023-03-24T06:50:57.094Z,76.54
2023-03-24T06:51:57.110Z,72.51
2023-03-24T06:52:57.430Z,69.00
2023-03-24T06:53:57.158Z,65.25
2023-03-24T06:54:57.067Z,62.03
2023-03-24T06:55:57.063Z,58.41
2023-03-24T06:56:57.066Z,55.04
2023-03-24T06:57:57.028Z,51.22
2023-03-24T06:58:57.003Z,48.70
2023-03-24T06:59:57.005Z,45.53
2023-03-24T07:00:57.034Z,43.02
2023-03-24T07:01:57.086Z,40.26
2023-03-24T07:02:57.084Z,38.01
2023-03-24T07:03:57.160Z,35.72
2023-03-24T07:04:56.951Z,33.88
2023-03-24T07:05:56.935Z,31.95
2023-03-24T07:07:12.484Z,30.71
2023-03-24T07:08:57.042Z,27.77
2023-03-24T07:09:57.053Z,26.58
2023-03-24T07:10:56.869Z,25.56
2023-03-24T07:11:57.693Z,24.68
2023-03-24T07:12:56.829Z,23.96
2023-03-24T07:13:56.844Z,23.12
2023-03-24T07:14:56.821Z,22.57
2023-03-24T07:15:56.859Z,21.89
2023-03-24T07:16:56.992Z,21.31
2023-03-24T07:17:57.064Z,20.89
2023-03-24T07:18:56.764Z,20.28
2023-03-24T07:19:57.103Z,19.84
2023-03-24T07:20:56.754Z,19.41
2023-03-24T07:21:56.799Z,19.05
2023-03-24T07:22:56.737Z,18.71
2023-03-24T07:23:56.728Z,18.26
2023-03-24T07:24:57.297Z,18.12
2023-03-24T07:25:57.066Z,17.89
2023-03-24T07:26:56.683Z,17.61
2023-03-24T07:27:56.750Z,17.38
2023-03-24T07:28:56.675Z,17.14
2023-03-24T07:29:56.660Z,16.96
2023-03-24T07:30:56.967Z,16.78
2023-03-24T07:31:56.679Z,16.60
2023-03-24T07:32:57.594Z,16.42
2023-03-24T07:33:58.122Z,16.23
2023-03-24T07:34:56.593Z,16.14
2023-03-24T07:35:56.645Z,15.94
2023-03-24T07:36:56.587Z,15.86
2023-03-24T07:37:56.594Z,15.82
2023-03-24T07:38:56.544Z,15.62
2023-03-24T07:39:56.529Z,15.61
2023-03-24T07:40:56.534Z,15.65
2023-03-24T07:41:57.072Z,15.71
2023-03-24T07:42:56.508Z,16.34
2023-03-24T07:43:56.865Z,18.05
2023-03-24T07:44:56.491Z,21.04
2023-03-24T07:45:56.475Z,25.03
2023-03-24T07:46:56.582Z,29.08
2023-03-24T07:47:56.467Z,32.36
2023-03-24T07:48:59.465Z,35.12
2023-03-24T07:49:58.073Z,37.70
2023-03-24T07:50:57.085Z,39.73
2023-03-24T07:51:56.398Z,41.86
2023-03-24T07:52:58.667Z,42.89
2023-03-24T07:53:56.357Z,42.80
2023-03-24T07:54:56.356Z,43.24
2023-03-24T07:55:56.351Z,43.15
2023-03-24T07:56:56.416Z,43.28
2023-03-24T07:57:56.343Z,42.37
2023-03-24T07:58:56.374Z,41.90
2023-03-24T07:59:56.375Z,42.28
2023-03-24T08:00:56.328Z,42.71
2023-03-24T08:02:57.466Z,44.06
2023-03-24T08:03:21.502Z,43.51
2023-03-24T08:03:56.296Z,44.38
2023-03-24T08:04:56.435Z,43.92
2023-03-24T08:05:56.467Z,43.51
2023-03-24T08:06:56.223Z,41.13
2023-03-24T08:07:56.489Z,39.47
2023-03-24T08:08:56.221Z,38.92
2023-03-24T08:09:56.629Z,37.50
2023-03-24T08:10:56.184Z,36.30
2023-03-24T08:11:56.579Z,34.80
2023-03-24T08:12:56.561Z,34.07
2023-03-24T08:13:56.157Z,33.15
2023-03-24T08:14:56.136Z,32.02
2023-03-24T08:15:56.131Z,31.44
2023-03-24T08:16:56.178Z,31.00
2023-03-24T08:17:56.123Z,30.60
2023-03-24T08:18:56.174Z,30.14
2023-03-24T08:20:00.694Z,29.82
2023-03-24T08:20:57.118Z,29.30
2023-03-24T08:21:56.105Z,29.36
2023-03-24T08:22:56.079Z,29.08
2023-03-24T08:23:56.025Z,28.92
2023-03-24T08:24:56.021Z,28.74
2023-03-24T08:25:55.991Z,28.60
2023-03-24T08:26:55.994Z,28.29
2023-03-24T08:27:55.981Z,27.90
2023-03-24T08:28:56.105Z,27.57
2023-03-24T08:29:55.959Z,27.52
2023-03-24T08:30:55.973Z,27.25
2023-03-24T08:31:55.928Z,27.18
2023-03-24T08:32:55.998Z,26.93
2023-03-24T08:33:55.908Z,26.71
2023-03-24T08:34:55.931Z,26.43
2023-03-24T08:35:55.899Z,26.02
2023-03-24T08:36:55.885Z,25.64
2023-03-24T08:37:55.874Z,25.25
2023-03-24T08:38:55.855Z,25.16
2023-03-24T08:39:55.825Z,25.94
2023-03-24T08:40:57.274Z,27.44
2023-03-24T08:41:56.106Z,28.78
2023-03-24T08:42:55.829Z,30.27
2023-03-24T08:43:55.782Z,31.49
2023-03-24T08:44:56.285Z,32.84
2023-03-24T08:45:56.124Z,35.00
2023-03-24T08:46:56.356Z,38.21
2023-03-24T08:47:55.785Z,42.24
2023-03-24T08:48:55.746Z,47.51
2023-03-24T08:49:55.712Z,52.01
2023-03-24T08:50:55.718Z,57.65
2023-03-24T08:51:55.709Z,62.91
2023-03-24T08:52:56.694Z,67.83
2023-03-24T08:53:55.675Z,74.51
2023-03-24T08:54:55.674Z,80.89
2023-03-24T08:55:56.134Z,89.03
2023-03-24T08:56:55.681Z,95.58
2023-03-24T08:57:55.608Z,103.91
2023-03-24T08:58:55.643Z,107.36
2023-03-24T08:59:55.585Z,108.33
2023-03-24T09:00:57.035Z,107.43
2023-03-24T09:01:56.188Z,107.22
2023-03-24T09:02:55.606Z,110.61
2023-03-24T09:03:55.558Z,113.44
2023-03-24T09:04:55.609Z,117.16
2023-03-24T09:05:55.609Z,120.00
2023-03-24T09:06:55.524Z,125.84
2023-03-24T09:07:55.497Z,129.63
2023-03-24T09:08:56.143Z,135.80
2023-03-24T09:09:55.490Z,142.48
2023-03-24T09:10:55.473Z,151.87
2023-03-24T09:11:56.131Z,159.51
2023-03-24T09:12:56.137Z,164.18
2023-03-24T09:13:55.589Z,169.14
2023-03-24T09:14:55.868Z,173.50
2023-03-24T09:15:55.433Z,175.31
2023-03-24T09:16:55.403Z,177.16
2023-03-24T09:17:55.396Z,177.72
2023-03-24T09:18:55.388Z,175.86
2023-03-24T09:19:55.353Z,176.97
2023-03-24T09:20:55.363Z,175.31
2023-03-24T09:21:55.340Z,177.72
2023-03-24T09:22:55.340Z,181.17
2023-03-24T09:23:55.312Z,188.41
2023-03-24T09:24:55.323Z,195.43
2023-03-24T09:25:55.285Z,200.28
2023-03-24T09:26:55.332Z,208.23
2023-03-24T09:27:55.281Z,217.12
2023-03-24T09:28:55.284Z,222.98
2023-03-24T09:29:55.279Z,227.58
2023-03-24T09:30:55.316Z,231.89
2023-03-24T09:31:55.217Z,237.73
2023-03-24T09:32:55.313Z,239.97
2023-03-24T09:33:55.237Z,246.04
2023-03-24T09:34:55.212Z,249.20
2023-03-24T09:35:56.538Z,254.18
2023-03-24T09:36:55.208Z,258.76
2023-03-24T09:37:55.266Z,268.20
2023-03-24T09:38:55.264Z,277.43
2023-03-24T09:39:55.147Z,281.93
2023-03-24T09:40:55.184Z,286.07
2023-03-24T09:41:55.185Z,290.09
2023-03-24T09:42:55.188Z,295.54
2023-03-24T09:43:55.119Z,300.64
2023-03-24T09:44:55.104Z,298.74
2023-03-24T09:45:55.104Z,295.54
2023-03-24T09:46:55.135Z,293.18
2023-03-24T09:47:55.053Z,291.11
2023-03-24T09:48:55.153Z,290.86
2023-03-24T09:49:54.992Z,291.11
2023-03-24T09:50:55.009Z,289.33
2023-03-24T09:51:54.970Z,296.86
2023-03-24T09:52:54.981Z,303.40
2023-03-24T09:53:54.961Z,311.11
2023-03-24T09:54:54.953Z,315.57
2023-03-24T09:55:54.921Z,316.47
2023-03-24T09:56:54.988Z,320.15
2023-03-24T09:57:54.910Z,320.77
2023-03-24T09:58:54.910Z,322.02
2023-03-24T09:59:54.894Z,324.87
2023-03-24T10:00:56.330Z,330.39
2023-03-24T10:01:54.877Z,337.13
2023-03-24T10:02:57.354Z,340.95
2023-03-24T10:03:54.945Z,339.21
2023-03-24T10:04:55.139Z,334.06
2023-03-24T10:05:54.887Z,333.73
2023-03-24T10:06:54.808Z,330.72
2023-03-24T10:07:54.782Z,330.72
2023-03-24T10:08:54.792Z,327.77
2023-03-24T10:09:54.780Z,326.15
2023-03-24T10:10:54.751Z,324.23
2023-03-24T10:11:54.738Z,326.15
2023-03-24T10:12:55.145Z,325.51
2023-03-24T10:13:54.714Z,323.28
2023-03-24T10:14:54.771Z,325.19
2023-03-24T10:15:55.130Z,314.67
2023-03-24T10:16:54.690Z,324.55
2023-03-24T10:17:54.868Z,339.21
2023-03-24T10:18:54.766Z,347.04
2023-03-24T10:19:59.753Z,347.77
2023-03-24T10:20:55.797Z,348.50
2023-03-24T10:21:54.610Z,352.97
2023-03-24T10:22:54.632Z,350.35
2023-03-24T10:23:54.606Z,340.60
2023-03-24T10:24:54.627Z,337.82
2023-03-24T10:25:54.596Z,336.10
2023-03-24T10:26:54.579Z,337.82
2023-03-24T10:27:54.546Z,353.72
2023-03-24T10:28:55.179Z,374.57
2023-03-24T10:29:54.522Z,389.01
2023-03-24T10:30:54.527Z,389.24
2023-03-24T10:31:54.530Z,394.50
2023-03-24T10:32:54.538Z,412.67
2023-03-24T10:33:54.500Z,434.28
2023-03-24T10:34:54.497Z,444.33
2023-03-24T10:35:54.507Z,440.83
2023-03-24T10:36:54.521Z,442.57
2023-03-24T10:37:54.451Z,451.19
2023-03-24T10:38:54.443Z,477.15
2023-03-24T10:39:54.467Z,499.87
2023-03-24T10:40:54.399Z,518.39
2023-03-24T10:41:54.388Z,532.35
2023-03-24T10:43:07.240Z,528.17
2023-03-24T10:43:56.177Z,517.99
2023-03-24T10:44:54.620Z,518.79
2023-03-24T10:45:54.366Z,516.39
2023-03-24T10:46:54.348Z,505.51
2023-03-24T10:47:54.352Z,502.49
2023-03-24T10:48:54.327Z,525.28
2023-03-24T10:49:54.302Z,534.90
2023-03-24T10:50:54.308Z,538.76
2023-03-24T10:51:54.699Z,543.99
2023-03-24T10:52:54.721Z,538.76
2023-03-24T10:53:54.235Z,548.43
2023-03-24T10:54:54.260Z,587.26
2023-03-24T10:55:54.228Z,607.44
2023-03-24T10:56:55.337Z,623.79
2023-03-24T10:57:54.214Z,629.05
2023-03-24T10:58:54.216Z,623.79
2023-03-24T10:59:54.186Z,619.77
2023-03-24T11:00:54.250Z,622.06
2023-03-24T11:01:54.193Z,633.20
2023-03-24T11:02:54.273Z,659.30
2023-03-24T11:03:54.129Z,682.75
2023-03-24T11:04:54.129Z,713.95
2023-03-24T11:05:54.223Z,735.85
2023-03-24T11:06:54.112Z,741.53
2023-03-24T11:07:54.876Z,741.53
2023-03-24T11:08:54.230Z,735.04
2023-03-24T11:09:54.228Z,748.05
2023-03-24T11:10:54.228Z,776.56
2023-03-24T11:11:54.052Z,796.33
2023-03-24T11:12:54.037Z,804.42
2023-03-24T11:13:54.013Z,782.43
2023-03-24T11:14:54.004Z,769.89
2023-03-24T11:15:54.007Z,772.10
2023-03-24T11:16:54.324Z,764.20
2023-03-24T11:17:54.260Z,746.47
2023-03-24T11:18:53.977Z,751.82
2023-03-24T11:19:53.955Z,783.80
2023-03-24T11:20:53.942Z,802.51
2023-03-24T11:21:53.938Z,819.62
2023-03-24T11:22:53.947Z,809.27
2023-03-24T11:23:53.901Z,804.42
2023-03-24T11:24:54.192Z,796.33
2023-03-24T11:25:54.326Z,781.98
2023-03-24T11:26:54.236Z,766.82
2023-03-24T11:27:53.953Z,797.75
2023-03-24T11:28:53.871Z,814.66
2023-03-24T11:29:54.250Z,834.89
2023-03-24T11:30:53.862Z,861.63
2023-03-24T11:31:54.250Z,890.73
2023-03-24T11:32:54.308Z,899.06
2023-03-24T11:33:53.802Z,887.79
2023-03-24T11:34:54.251Z,893.69
2023-03-24T11:36:05.185Z,883.71
2023-03-24T11:36:54.816Z,866.62
2023-03-24T11:37:53.747Z,896.07
2023-03-24T11:38:53.734Z,928.23
2023-03-24T11:39:54.734Z,939.90
2023-03-24T11:40:54.246Z,951.88
2023-03-24T11:41:53.828Z,975.34
2023-03-24T11:42:54.250Z,1022.04
2023-03-24T11:43:53.664Z,1070.01
2023-03-24T11:44:53.664Z,1083.80
2023-03-24T11:45:53.708Z,1081.19
2023-03-24T11:46:53.642Z,1101.56
2023-03-24T11:47:54.294Z,1098.86
2023-03-24T11:48:54.253Z,1118.04
2023-03-24T11:49:54.250Z,1133.11
2023-03-24T11:50:54.258Z,1179.82
2023-03-24T11:51:53.584Z,1173.65
2023-03-24T11:52:53.578Z,1148.59
2023-03-24T11:53:53.559Z,1143.71
2023-03-24T11:54:53.563Z,1157.49
2023-03-24T11:55:53.631Z,1161.48
2023-03-24T11:56:53.617Z,1158.48
2023-03-24T11:57:53.624Z,1185.02
2023-03-24T11:58:53.605Z,1205.20
2023-03-24T11:59:53.497Z,1209.53
2023-03-24T12:00:53.462Z,1237.35
2023-03-24T12:01:53.563Z,1280.95
2023-03-24T12:02:53.687Z,1288.31
2023-03-24T12:03:53.781Z,1305.82
2023-03-24T12:04:53.447Z,1293.27
2023-03-24T12:05:54.082Z,1284.62
2023-03-24T12:06:53.686Z,1247.68
2023-03-24T12:07:53.748Z,1168.55
2023-03-24T12:08:53.392Z,1106.08
2023-03-24T12:09:53.539Z,1156.49
2023-03-24T12:10:53.359Z,1223.84
2023-03-24T12:11:53.480Z,1244.22
2023-03-24T12:12:53.713Z,1270.07
2023-03-24T12:13:53.329Z,1309.64
2023-03-24T12:14:53.831Z,1353.12
2023-03-24T12:15:53.349Z,1411.33
2023-03-24T12:16:53.282Z,1438.50
2023-03-24T12:17:53.329Z,1468.34
2023-03-24T12:18:53.244Z,1479.65
2023-03-24T12:19:53.272Z,1465.14
2023-03-24T12:20:53.226Z,1455.63
2023-03-24T12:21:53.226Z,1476.40
2023-03-24T12:22:53.202Z,1471.55
2023-03-24T12:23:53.207Z,1468.34
2023-03-24T12:24:53.204Z,1465.14
2023-03-24T12:25:53.209Z,1466.74
2023-03-24T12:26:53.154Z,1457.20
2023-03-24T12:27:53.161Z,1438.50
2023-03-24T12:28:53.134Z,1430.85
2023-03-24T12:29:53.133Z,1409.85
2023-03-24T12:30:53.288Z,1368.26
2023-03-24T12:31:53.305Z,1392.34
2023-03-24T12:32:53.125Z,1440.04
2023-03-24T12:33:53.097Z,1452.48
2023-03-24T12:34:53.061Z,1507.85
2023-03-24T12:35:53.318Z,1507.85
2023-03-24T12:36:53.289Z,1524.94
2023-03-24T12:37:53.035Z,1538.02
2023-03-24T12:38:53.273Z,1545.09
2023-03-24T12:39:53.019Z,1559.42
2023-03-24T12:40:52.988Z,1552.22
2023-03-24T12:41:53.005Z,1554.91
2023-03-24T12:42:52.981Z,1539.78